Silifke, Turkey
Current Conditions -  °F | °C
As of 6:20 AM on Thursday 29 Jan 2015 (Local Time) from LTAF Reporting Station
Haze Haze  
Wind Chill: 42°   Ceiling: Unl
Heat Index: 45°   Visibility: 2.5mi
Dew Point: 39°   Wind: 5mph
Humidity: 81%   Direction: 20°NNE
Pressure: 29.94"   Gusts: NA
Location:  36.37°N, 33.93°E
Report Text: LTAF 290420Z 02004KT 4000 BR FEW040 07/04 Q1014 NOSIG
Loading
Personal Weather Stations






























Interactive Weather Map New forecast layout! Learn more

10-Day Weather Forecast

Advertisements
Track Severe Weather on mobile